sensor_id;sensor_type;location;lat;lon;timestamp;P1;durP1;ratioP1;P2;durP2;ratioP2
11125;SDS011;5617;54.046;10.676;2023-02-28T00:01:13;3.83;;;2.90;;
11125;SDS011;5617;54.046;10.676;2023-02-28T00:03:24;5.60;;;3.30;;
11125;SDS011;5617;54.046;10.676;2023-02-28T00:05:32;4.20;;;2.90;;
11125;SDS011;5617;54.046;10.676;2023-02-28T00:07:41;3.77;;;2.63;;
11125;SDS011;5617;54.046;10.676;2023-02-28T00:09:48;6.33;;;3.00;;
11125;SDS011;5617;54.046;10.676;2023-02-28T00:11:56;4.10;;;2.73;;
11125;SDS011;5617;54.046;10.676;2023-02-28T00:14:04;4.63;;;2.63;;
11125;SDS011;5617;54.046;10.676;2023-02-28T00:16:12;5.50;;;2.90;;
11125;SDS011;5617;54.046;10.676;2023-02-28T00:18:21;4.33;;;2.90;;
11125;SDS011;5617;54.046;10.676;2023-02-28T00:20:30;4.30;;;2.90;;
11125;SDS011;5617;54.046;10.676;2023-02-28T00:22:38;4.33;;;2.90;;
11125;SDS011;5617;54.046;10.676;2023-02-28T00:24:48;4.47;;;2.93;;
11125;SDS011;5617;54.046;10.676;2023-02-28T00:26:55;3.30;;;2.80;;
11125;SDS011;5617;54.046;10.676;2023-02-28T00:29:03;3.13;;;2.47;;
11125;SDS011;5617;54.046;10.676;2023-02-28T00:31:11;4.00;;;2.70;;
11125;SDS011;5617;54.046;10.676;2023-02-28T00:33:19;5.47;;;3.10;;
11125;SDS011;5617;54.046;10.676;2023-02-28T00:35:28;4.50;;;2.70;;
11125;SDS011;5617;54.046;10.676;2023-02-28T00:37:36;5.17;;;2.70;;
11125;SDS011;5617;54.046;10.676;2023-02-28T00:39:44;4.87;;;2.90;;
11125;SDS011;5617;54.046;10.676;2023-02-28T00:41:51;4.17;;;3.00;;
11125;SDS011;5617;54.046;10.676;2023-02-28T00:43:59;5.93;;;2.83;;
11125;SDS011;5617;54.046;10.676;2023-02-28T00:46:07;3.40;;;2.60;;
11125;SDS011;5617;54.046;10.676;2023-02-28T00:48:15;4.83;;;3.07;;
11125;SDS011;5617;54.046;10.676;2023-02-28T00:50:23;5.13;;;3.23;;
11125;SDS011;5617;54.046;10.676;2023-02-28T00:52:34;4.80;;;3.10;;
11125;SDS011;5617;54.046;10.676;2023-02-28T00:54:41;3.27;;;2.83;;
11125;SDS011;5617;54.046;10.676;2023-02-28T00:56:49;3.77;;;2.80;;
11125;SDS011;5617;54.046;10.676;2023-02-28T00:58:57;5.63;;;2.83;;
11125;SDS011;5617;54.046;10.676;2023-02-28T01:01:05;4.23;;;3.00;;
11125;SDS011;5617;54.046;10.676;2023-02-28T01:03:13;3.47;;;2.73;;
11125;SDS011;5617;54.046;10.676;2023-02-28T01:05:20;3.80;;;2.97;;
11125;SDS011;5617;54.046;10.676;2023-02-28T01:07:27;5.53;;;2.73;;
11125;SDS011;5617;54.046;10.676;2023-02-28T01:09:36;6.07;;;3.40;;
11125;SDS011;5617;54.046;10.676;2023-02-28T01:11:44;3.73;;;3.00;;
11125;SDS011;5617;54.046;10.676;2023-02-28T01:13:51;5.63;;;3.23;;
11125;SDS011;5617;54.046;10.676;2023-02-28T01:15:59;4.53;;;3.03;;
11125;SDS011;5617;54.046;10.676;2023-02-28T01:18:07;5.67;;;3.53;;
11125;SDS011;5617;54.046;10.676;2023-02-28T01:20:14;7.03;;;3.43;;
11125;SDS011;5617;54.046;10.676;2023-02-28T01:22:22;4.93;;;3.10;;
11125;SDS011;5617;54.046;10.676;2023-02-28T01:24:30;6.33;;;3.23;;
11125;SDS011;5617;54.046;10.676;2023-02-28T01:26:39;5.23;;;3.10;;
11125;SDS011;5617;54.046;10.676;2023-02-28T01:28:47;6.63;;;3.00;;
11125;SDS011;5617;54.046;10.676;2023-02-28T01:30:55;3.50;;;2.90;;
11125;SDS011;5617;54.046;10.676;2023-02-28T01:33:03;3.67;;;3.30;;
11125;SDS011;5617;54.046;10.676;2023-02-28T01:35:10;3.73;;;3.30;;
11125;SDS011;5617;54.046;10.676;2023-02-28T01:37:18;4.83;;;3.07;;
11125;SDS011;5617;54.046;10.676;2023-02-28T01:39:26;3.33;;;2.83;;
11125;SDS011;5617;54.046;10.676;2023-02-28T01:41:34;4.97;;;2.90;;
11125;SDS011;5617;54.046;10.676;2023-02-28T01:43:57;3.70;;;3.20;;
11125;SDS011;5617;54.046;10.676;2023-02-28T01:46:08;5.07;;;3.10;;
11125;SDS011;5617;54.046;10.676;2023-02-28T01:48:17;3.07;;;2.60;;
11125;SDS011;5617;54.046;10.676;2023-02-28T01:50:28;4.10;;;2.80;;
11125;SDS011;5617;54.046;10.676;2023-02-28T01:52:41;4.93;;;2.80;;
11125;SDS011;5617;54.046;10.676;2023-02-28T01:54:50;5.73;;;2.90;;
11125;SDS011;5617;54.046;10.676;2023-02-28T01:57:01;3.93;;;3.00;;
11125;SDS011;5617;54.046;10.676;2023-02-28T01:59:14;3.50;;;2.83;;
11125;SDS011;5617;54.046;10.676;2023-02-28T02:01:27;4.63;;;3.00;;
11125;SDS011;5617;54.046;10.676;2023-02-28T02:03:37;4.60;;;2.77;;
11125;SDS011;5617;54.046;10.676;2023-02-28T02:05:45;3.47;;;2.90;;
11125;SDS011;5617;54.046;10.676;2023-02-28T02:07:54;7.57;;;3.33;;
11125;SDS011;5617;54.046;10.676;2023-02-28T02:10:04;3.87;;;2.50;;
11125;SDS011;5617;54.046;10.676;2023-02-28T02:12:21;4.40;;;2.63;;
11125;SDS011;5617;54.046;10.676;2023-02-28T02:14:43;4.30;;;2.67;;
11125;SDS011;5617;54.046;10.676;2023-02-28T02:17:04;4.13;;;2.50;;
11125;SDS011;5617;54.046;10.676;2023-02-28T02:19:53;3.33;;;2.57;;
11125;SDS011;5617;54.046;10.676;2023-02-28T02:22:27;4.70;;;2.50;;
11125;SDS011;5617;54.046;10.676;2023-02-28T02:25:07;3.23;;;2.60;;
11125;SDS011;5617;54.046;10.676;2023-02-28T02:27:23;3.37;;;2.60;;
11125;SDS011;5617;54.046;10.676;2023-02-28T02:29:43;4.93;;;2.70;;
11125;SDS011;5617;54.046;10.676;2023-02-28T02:32:27;5.10;;;2.50;;
11125;SDS011;5617;54.046;10.676;2023-02-28T02:34:50;3.10;;;2.23;;
11125;SDS011;5617;54.046;10.676;2023-02-28T02:37:08;5.57;;;2.50;;
11125;SDS011;5617;54.046;10.676;2023-02-28T02:39:22;3.80;;;2.10;;
11125;SDS011;5617;54.046;10.676;2023-02-28T02:41:39;3.63;;;2.40;;
11125;SDS011;5617;54.046;10.676;2023-02-28T02:43:53;3.67;;;2.40;;
11125;SDS011;5617;54.046;10.676;2023-02-28T02:46:06;5.03;;;2.37;;
11125;SDS011;5617;54.046;10.676;2023-02-28T02:48:17;5.87;;;2.60;;
11125;SDS011;5617;54.046;10.676;2023-02-28T02:50:30;2.77;;;2.17;;
11125;SDS011;5617;54.046;10.676;2023-02-28T02:52:42;3.87;;;2.30;;
11125;SDS011;5617;54.046;10.676;2023-02-28T02:54:54;3.73;;;2.10;;
11125;SDS011;5617;54.046;10.676;2023-02-28T02:57:05;3.07;;;2.07;;
11125;SDS011;5617;54.046;10.676;2023-02-28T02:59:17;4.00;;;2.43;;
11125;SDS011;5617;54.046;10.676;2023-02-28T03:01:28;3.63;;;2.17;;
11125;SDS011;5617;54.046;10.676;2023-02-28T03:03:37;3.60;;;2.20;;
11125;SDS011;5617;54.046;10.676;2023-02-28T03:05:47;5.47;;;2.47;;
11125;SDS011;5617;54.046;10.676;2023-02-28T03:07:56;3.03;;;2.30;;
11125;SDS011;5617;54.046;10.676;2023-02-28T03:12:40;2.73;;;2.00;;
11125;SDS011;5617;54.046;10.676;2023-02-28T03:14:59;4.27;;;2.10;;
11125;SDS011;5617;54.046;10.676;2023-02-28T03:17:31;3.20;;;1.87;;
11125;SDS011;5617;54.046;10.676;2023-02-28T03:19:57;2.90;;;1.80;;
11125;SDS011;5617;54.046;10.676;2023-02-28T03:22:18;5.07;;;2.40;;
11125;SDS011;5617;54.046;10.676;2023-02-28T03:24:49;3.50;;;2.40;;
11125;SDS011;5617;54.046;10.676;2023-02-28T03:27:03;4.57;;;2.30;;
11125;SDS011;5617;54.046;10.676;2023-02-28T03:29:15;3.20;;;2.40;;
11125;SDS011;5617;54.046;10.676;2023-02-28T03:31:27;3.17;;;2.37;;
11125;SDS011;5617;54.046;10.676;2023-02-28T03:33:42;6.27;;;2.83;;
11125;SDS011;5617;54.046;10.676;2023-02-28T03:36:01;3.53;;;2.43;;
11125;SDS011;5617;54.046;10.676;2023-02-28T03:38:14;7.87;;;2.63;;
11125;SDS011;5617;54.046;10.676;2023-02-28T03:40:25;4.00;;;2.10;;
11125;SDS011;5617;54.046;10.676;2023-02-28T03:42:38;3.80;;;2.43;;
11125;SDS011;5617;54.046;10.676;2023-02-28T03:44:51;3.60;;;2.60;;
11125;SDS011;5617;54.046;10.676;2023-02-28T03:47:03;2.53;;;2.30;;
11125;SDS011;5617;54.046;10.676;2023-02-28T03:49:16;3.13;;;2.37;;
11125;SDS011;5617;54.046;10.676;2023-02-28T03:51:27;3.70;;;2.33;;
11125;SDS011;5617;54.046;10.676;2023-02-28T03:53:39;2.93;;;2.30;;
11125;SDS011;5617;54.046;10.676;2023-02-28T03:55:51;2.70;;;2.20;;
11125;SDS011;5617;54.046;10.676;2023-02-28T03:58:03;2.40;;;2.20;;
11125;SDS011;5617;54.046;10.676;2023-02-28T04:00:19;2.70;;;2.20;;
11125;SDS011;5617;54.046;10.676;2023-02-28T04:02:34;3.30;;;1.93;;
11125;SDS011;5617;54.046;10.676;2023-02-28T04:04:41;4.57;;;2.17;;
11125;SDS011;5617;54.046;10.676;2023-02-28T04:07:00;3.30;;;2.33;;
11125;SDS011;5617;54.046;10.676;2023-02-28T04:09:11;3.20;;;1.90;;
11125;SDS011;5617;54.046;10.676;2023-02-28T04:11:21;3.93;;;2.07;;
11125;SDS011;5617;54.046;10.676;2023-02-28T04:13:30;3.33;;;2.10;;
11125;SDS011;5617;54.046;10.676;2023-02-28T04:15:38;3.03;;;2.20;;
11125;SDS011;5617;54.046;10.676;2023-02-28T04:17:45;2.57;;;2.37;;
11125;SDS011;5617;54.046;10.676;2023-02-28T04:19:52;2.67;;;2.20;;
11125;SDS011;5617;54.046;10.676;2023-02-28T04:22:03;2.77;;;2.00;;
11125;SDS011;5617;54.046;10.676;2023-02-28T04:24:12;2.77;;;2.13;;
11125;SDS011;5617;54.046;10.676;2023-02-28T04:26:21;3.30;;;2.17;;
11125;SDS011;5617;54.046;10.676;2023-02-28T04:28:29;4.40;;;2.13;;
11125;SDS011;5617;54.046;10.676;2023-02-28T04:30:37;4.03;;;1.90;;
11125;SDS011;5617;54.046;10.676;2023-02-28T04:32:45;4.27;;;2.50;;
11125;SDS011;5617;54.046;10.676;2023-02-28T04:34:52;4.20;;;2.00;;
11125;SDS011;5617;54.046;10.676;2023-02-28T04:37:00;3.33;;;2.30;;
11125;SDS011;5617;54.046;10.676;2023-02-28T04:39:08;4.73;;;2.30;;
11125;SDS011;5617;54.046;10.676;2023-02-28T04:41:18;4.83;;;2.40;;
11125;SDS011;5617;54.046;10.676;2023-02-28T04:43:26;3.47;;;2.20;;
11125;SDS011;5617;54.046;10.676;2023-02-28T04:45:34;3.63;;;2.50;;
11125;SDS011;5617;54.046;10.676;2023-02-28T04:47:42;2.60;;;2.40;;
11125;SDS011;5617;54.046;10.676;2023-02-28T04:49:49;2.50;;;2.30;;
11125;SDS011;5617;54.046;10.676;2023-02-28T04:51:57;3.27;;;2.40;;
11125;SDS011;5617;54.046;10.676;2023-02-28T04:54:05;2.93;;;2.43;;
11125;SDS011;5617;54.046;10.676;2023-02-28T04:56:13;3.60;;;2.53;;
11125;SDS011;5617;54.046;10.676;2023-02-28T04:58:23;2.60;;;2.40;;
11125;SDS011;5617;54.046;10.676;2023-02-28T05:00:31;4.67;;;2.50;;
11125;SDS011;5617;54.046;10.676;2023-02-28T05:02:38;2.60;;;2.40;;
11125;SDS011;5617;54.046;10.676;2023-02-28T05:04:46;4.33;;;2.50;;
11125;SDS011;5617;54.046;10.676;2023-02-28T05:06:53;2.80;;;2.60;;
11125;SDS011;5617;54.046;10.676;2023-02-28T05:09:01;5.03;;;2.63;;
11125;SDS011;5617;54.046;10.676;2023-02-28T05:11:12;3.70;;;2.60;;
11125;SDS011;5617;54.046;10.676;2023-02-28T05:13:23;3.77;;;2.73;;
11125;SDS011;5617;54.046;10.676;2023-02-28T05:15:31;3.90;;;2.50;;
11125;SDS011;5617;54.046;10.676;2023-02-28T05:17:39;3.87;;;2.43;;
11125;SDS011;5617;54.046;10.676;2023-02-28T05:19:46;5.10;;;2.37;;
11125;SDS011;5617;54.046;10.676;2023-02-28T05:21:54;4.93;;;2.73;;
11125;SDS011;5617;54.046;10.676;2023-02-28T05:24:03;3.50;;;2.60;;
11125;SDS011;5617;54.046;10.676;2023-02-28T05:26:11;5.20;;;2.67;;
11125;SDS011;5617;54.046;10.676;2023-02-28T05:28:19;5.20;;;2.67;;
11125;SDS011;5617;54.046;10.676;2023-02-28T05:30:28;4.73;;;2.33;;
11125;SDS011;5617;54.046;10.676;2023-02-28T05:32:37;3.43;;;2.50;;
11125;SDS011;5617;54.046;10.676;2023-02-28T05:34:48;4.07;;;3.00;;
11125;SDS011;5617;54.046;10.676;2023-02-28T05:36:59;2.77;;;2.30;;
11125;SDS011;5617;54.046;10.676;2023-02-28T05:39:06;2.40;;;2.20;;
11125;SDS011;5617;54.046;10.676;2023-02-28T05:41:18;4.10;;;2.60;;
11125;SDS011;5617;54.046;10.676;2023-02-28T05:43:27;3.33;;;2.20;;
11125;SDS011;5617;54.046;10.676;2023-02-28T05:45:36;3.67;;;2.30;;
11125;SDS011;5617;54.046;10.676;2023-02-28T05:47:44;4.60;;;2.70;;
11125;SDS011;5617;54.046;10.676;2023-02-28T05:49:52;4.60;;;2.60;;
11125;SDS011;5617;54.046;10.676;2023-02-28T05:51:59;4.37;;;2.70;;
11125;SDS011;5617;54.046;10.676;2023-02-28T05:54:07;5.93;;;3.70;;
11125;SDS011;5617;54.046;10.676;2023-02-28T05:56:15;7.70;;;3.50;;
11125;SDS011;5617;54.046;10.676;2023-02-28T05:58:22;4.43;;;3.30;;
11125;SDS011;5617;54.046;10.676;2023-02-28T06:00:31;5.97;;;3.07;;
11125;SDS011;5617;54.046;10.676;2023-02-28T06:02:40;3.77;;;2.70;;
11125;SDS011;5617;54.046;10.676;2023-02-28T06:04:47;3.20;;;2.90;;
11125;SDS011;5617;54.046;10.676;2023-02-28T06:06:55;4.97;;;2.70;;
11125;SDS011;5617;54.046;10.676;2023-02-28T06:09:03;4.80;;;3.70;;
11125;SDS011;5617;54.046;10.676;2023-02-28T06:11:11;4.63;;;3.23;;
11125;SDS011;5617;54.046;10.676;2023-02-28T06:13:19;5.43;;;3.30;;
11125;SDS011;5617;54.046;10.676;2023-02-28T06:15:27;5.13;;;3.70;;
11125;SDS011;5617;54.046;10.676;2023-02-28T06:17:35;6.10;;;3.60;;
11125;SDS011;5617;54.046;10.676;2023-02-28T06:19:44;4.73;;;3.47;;
11125;SDS011;5617;54.046;10.676;2023-02-28T06:21:51;5.57;;;4.17;;
11125;SDS011;5617;54.046;10.676;2023-02-28T06:24:00;5.00;;;4.00;;
11125;SDS011;5617;54.046;10.676;2023-02-28T06:26:09;5.30;;;4.00;;
11125;SDS011;5617;54.046;10.676;2023-02-28T06:28:17;5.87;;;3.70;;
11125;SDS011;5617;54.046;10.676;2023-02-28T06:30:25;5.97;;;3.63;;
11125;SDS011;5617;54.046;10.676;2023-02-28T06:32:34;5.47;;;3.77;;
11125;SDS011;5617;54.046;10.676;2023-02-28T06:34:41;8.23;;;3.80;;
11125;SDS011;5617;54.046;10.676;2023-02-28T06:36:51;9.73;;;4.67;;
11125;SDS011;5617;54.046;10.676;2023-02-28T06:38:59;7.63;;;4.40;;
11125;SDS011;5617;54.046;10.676;2023-02-28T06:41:07;8.10;;;4.87;;
11125;SDS011;5617;54.046;10.676;2023-02-28T06:43:15;7.87;;;4.30;;
11125;SDS011;5617;54.046;10.676;2023-02-28T06:45:22;6.50;;;3.60;;
11125;SDS011;5617;54.046;10.676;2023-02-28T06:47:31;5.40;;;3.50;;
11125;SDS011;5617;54.046;10.676;2023-02-28T06:49:39;4.83;;;3.10;;
11125;SDS011;5617;54.046;10.676;2023-02-28T06:51:48;4.53;;;3.53;;
11125;SDS011;5617;54.046;10.676;2023-02-28T06:53:56;4.60;;;3.07;;
11125;SDS011;5617;54.046;10.676;2023-02-28T06:56:04;3.40;;;2.90;;
11125;SDS011;5617;54.046;10.676;2023-02-28T06:58:13;5.70;;;3.87;;
11125;SDS011;5617;54.046;10.676;2023-02-28T07:00:24;5.80;;;3.80;;
11125;SDS011;5617;54.046;10.676;2023-02-28T07:02:31;6.40;;;4.00;;
11125;SDS011;5617;54.046;10.676;2023-02-28T07:04:41;8.30;;;5.07;;
11125;SDS011;5617;54.046;10.676;2023-02-28T07:07:03;8.33;;;5.50;;
11125;SDS011;5617;54.046;10.676;2023-02-28T07:09:12;8.07;;;4.97;;
11125;SDS011;5617;54.046;10.676;2023-02-28T07:11:20;9.43;;;5.43;;
11125;SDS011;5617;54.046;10.676;2023-02-28T07:13:31;12.50;;;6.67;;
11125;SDS011;5617;54.046;10.676;2023-02-28T07:15:39;19.40;;;13.63;;
11125;SDS011;5617;54.046;10.676;2023-02-28T07:17:47;37.50;;;24.70;;
11125;SDS011;5617;54.046;10.676;2023-02-28T07:19:54;11.87;;;8.03;;
11125;SDS011;5617;54.046;10.676;2023-02-28T07:22:03;9.30;;;5.93;;
11125;SDS011;5617;54.046;10.676;2023-02-28T07:24:11;5.73;;;4.83;;
11125;SDS011;5617;54.046;10.676;2023-02-28T07:26:21;6.27;;;4.30;;
11125;SDS011;5617;54.046;10.676;2023-02-28T07:28:29;5.53;;;3.90;;
11125;SDS011;5617;54.046;10.676;2023-02-28T07:30:37;5.33;;;3.67;;
11125;SDS011;5617;54.046;10.676;2023-02-28T07:32:45;5.87;;;4.57;;
11125;SDS011;5617;54.046;10.676;2023-02-28T07:34:53;7.07;;;4.40;;
11125;SDS011;5617;54.046;10.676;2023-02-28T07:37:01;6.20;;;4.13;;
11125;SDS011;5617;54.046;10.676;2023-02-28T07:39:11;7.23;;;4.27;;
11125;SDS011;5617;54.046;10.676;2023-02-28T07:41:19;6.27;;;3.80;;
11125;SDS011;5617;54.046;10.676;2023-02-28T07:43:28;7.13;;;4.50;;
11125;SDS011;5617;54.046;10.676;2023-02-28T07:45:36;5.97;;;4.17;;
11125;SDS011;5617;54.046;10.676;2023-02-28T07:47:44;4.80;;;3.67;;
11125;SDS011;5617;54.046;10.676;2023-02-28T07:49:51;10.13;;;6.27;;
11125;SDS011;5617;54.046;10.676;2023-02-28T07:51:59;4.97;;;3.57;;
11125;SDS011;5617;54.046;10.676;2023-02-28T07:54:07;4.40;;;3.40;;
11125;SDS011;5617;54.046;10.676;2023-02-28T07:56:18;6.03;;;3.40;;
11125;SDS011;5617;54.046;10.676;2023-02-28T07:58:26;4.50;;;3.03;;
11125;SDS011;5617;54.046;10.676;2023-02-28T08:00:35;4.30;;;3.10;;
11125;SDS011;5617;54.046;10.676;2023-02-28T08:02:43;3.47;;;2.93;;
11125;SDS011;5617;54.046;10.676;2023-02-28T08:04:51;4.33;;;3.20;;
11125;SDS011;5617;54.046;10.676;2023-02-28T08:06:58;4.37;;;3.00;;
11125;SDS011;5617;54.046;10.676;2023-02-28T08:09:06;5.43;;;3.27;;
11125;SDS011;5617;54.046;10.676;2023-02-28T08:11:13;4.67;;;2.90;;
11125;SDS011;5617;54.046;10.676;2023-02-28T08:13:23;4.47;;;2.83;;
11125;SDS011;5617;54.046;10.676;2023-02-28T08:15:31;4.40;;;2.87;;
11125;SDS011;5617;54.046;10.676;2023-02-28T08:17:38;3.90;;;3.00;;
11125;SDS011;5617;54.046;10.676;2023-02-28T08:19:46;5.77;;;2.90;;
11125;SDS011;5617;54.046;10.676;2023-02-28T08:21:54;4.77;;;3.40;;
11125;SDS011;5617;54.046;10.676;2023-02-28T08:24:01;5.00;;;3.10;;
11125;SDS011;5617;54.046;10.676;2023-02-28T08:26:09;6.73;;;3.53;;
11125;SDS011;5617;54.046;10.676;2023-02-28T08:28:17;6.50;;;4.30;;
11125;SDS011;5617;54.046;10.676;2023-02-28T08:30:26;6.33;;;4.20;;
11125;SDS011;5617;54.046;10.676;2023-02-28T08:32:33;6.80;;;4.40;;
11125;SDS011;5617;54.046;10.676;2023-02-28T08:34:41;7.13;;;4.33;;
11125;SDS011;5617;54.046;10.676;2023-02-28T08:36:48;8.00;;;4.90;;
11125;SDS011;5617;54.046;10.676;2023-02-28T08:38:56;8.20;;;5.33;;
11125;SDS011;5617;54.046;10.676;2023-02-28T08:41:05;6.73;;;4.87;;
11125;SDS011;5617;54.046;10.676;2023-02-28T08:43:14;6.20;;;3.90;;
11125;SDS011;5617;54.046;10.676;2023-02-28T08:45:22;5.90;;;3.83;;
11125;SDS011;5617;54.046;10.676;2023-02-28T08:47:31;6.53;;;4.17;;
11125;SDS011;5617;54.046;10.676;2023-02-28T08:49:39;6.13;;;3.70;;
11125;SDS011;5617;54.046;10.676;2023-02-28T08:51:46;6.30;;;3.90;;
11125;SDS011;5617;54.046;10.676;2023-02-28T08:53:55;3.83;;;3.20;;
11125;SDS011;5617;54.046;10.676;2023-02-28T08:56:08;4.77;;;2.30;;
11125;SDS011;5617;54.046;10.676;2023-02-28T08:58:17;3.63;;;2.47;;
11125;SDS011;5617;54.046;10.676;2023-02-28T09:00:24;3.37;;;2.37;;
11125;SDS011;5617;54.046;10.676;2023-02-28T09:02:34;3.80;;;2.40;;
11125;SDS011;5617;54.046;10.676;2023-02-28T09:04:41;4.53;;;2.60;;
11125;SDS011;5617;54.046;10.676;2023-02-28T09:06:51;3.70;;;2.43;;
11125;SDS011;5617;54.046;10.676;2023-02-28T09:08:59;4.00;;;2.30;;
11125;SDS011;5617;54.046;10.676;2023-02-28T09:11:07;2.47;;;1.87;;
11125;SDS011;5617;54.046;10.676;2023-02-28T09:13:15;2.83;;;2.10;;
11125;SDS011;5617;54.046;10.676;2023-02-28T09:15:23;4.07;;;2.17;;
11125;SDS011;5617;54.046;10.676;2023-02-28T09:17:30;2.53;;;2.20;;
11125;SDS011;5617;54.046;10.676;2023-02-28T09:19:40;2.30;;;2.00;;
11125;SDS011;5617;54.046;10.676;2023-02-28T09:21:48;2.63;;;1.80;;
11125;SDS011;5617;54.046;10.676;2023-02-28T09:23:56;2.63;;;1.97;;
11125;SDS011;5617;54.046;10.676;2023-02-28T09:26:04;2.90;;;1.57;;
11125;SDS011;5617;54.046;10.676;2023-02-28T09:28:12;3.53;;;1.70;;
11125;SDS011;5617;54.046;10.676;2023-02-28T09:30:21;2.23;;;1.70;;
11125;SDS011;5617;54.046;10.676;2023-02-28T09:32:29;3.03;;;2.00;;
11125;SDS011;5617;54.046;10.676;2023-02-28T09:34:37;2.20;;;1.60;;
11125;SDS011;5617;54.046;10.676;2023-02-28T09:36:46;4.97;;;1.70;;
11125;SDS011;5617;54.046;10.676;2023-02-28T09:38:54;3.03;;;1.40;;
11125;SDS011;5617;54.046;10.676;2023-02-28T09:41:03;3.70;;;1.77;;
11125;SDS011;5617;54.046;10.676;2023-02-28T09:43:19;2.90;;;1.40;;
11125;SDS011;5617;54.046;10.676;2023-02-28T09:45:30;1.60;;;1.23;;
11125;SDS011;5617;54.046;10.676;2023-02-28T09:47:43;1.67;;;1.07;;
11125;SDS011;5617;54.046;10.676;2023-02-28T09:49:51;4.10;;;1.83;;
11125;SDS011;5617;54.046;10.676;2023-02-28T09:52:02;3.17;;;1.50;;
11125;SDS011;5617;54.046;10.676;2023-02-28T09:54:12;2.17;;;1.30;;
11125;SDS011;5617;54.046;10.676;2023-02-28T09:56:25;2.90;;;1.20;;
11125;SDS011;5617;54.046;10.676;2023-02-28T09:58:39;1.90;;;0.77;;
11125;SDS011;5617;54.046;10.676;2023-02-28T10:00:54;2.10;;;1.00;;
11125;SDS011;5617;54.046;10.676;2023-02-28T10:03:14;1.93;;;1.20;;
11125;SDS011;5617;54.046;10.676;2023-02-28T10:05:36;3.33;;;1.30;;
11125;SDS011;5617;54.046;10.676;2023-02-28T10:07:52;0.97;;;0.90;;
11125;SDS011;5617;54.046;10.676;2023-02-28T10:10:15;2.10;;;1.00;;
11125;SDS011;5617;54.046;10.676;2023-02-28T10:12:28;3.50;;;1.30;;
11125;SDS011;5617;54.046;10.676;2023-02-28T10:14:38;1.60;;;1.00;;
11125;SDS011;5617;54.046;10.676;2023-02-28T10:16:52;1.97;;;1.30;;
11125;SDS011;5617;54.046;10.676;2023-02-28T10:19:03;1.93;;;1.13;;
11125;SDS011;5617;54.046;10.676;2023-02-28T10:21:17;1.83;;;1.27;;
11125;SDS011;5617;54.046;10.676;2023-02-28T10:23:31;4.43;;;1.50;;
11125;SDS011;5617;54.046;10.676;2023-02-28T10:25:41;3.23;;;1.23;;
11125;SDS011;5617;54.046;10.676;2023-02-28T10:27:54;1.83;;;1.20;;
11125;SDS011;5617;54.046;10.676;2023-02-28T10:30:09;2.53;;;1.20;;
11125;SDS011;5617;54.046;10.676;2023-02-28T10:32:19;3.33;;;1.80;;
11125;SDS011;5617;54.046;10.676;2023-02-28T10:34:29;1.60;;;1.30;;
11125;SDS011;5617;54.046;10.676;2023-02-28T10:36:37;2.30;;;1.43;;
11125;SDS011;5617;54.046;10.676;2023-02-28T10:38:47;3.03;;;1.60;;
11125;SDS011;5617;54.046;10.676;2023-02-28T10:41:05;4.47;;;1.60;;
11125;SDS011;5617;54.046;10.676;2023-02-28T10:43:19;2.00;;;1.50;;
11125;SDS011;5617;54.046;10.676;2023-02-28T10:45:28;1.77;;;1.23;;
11125;SDS011;5617;54.046;10.676;2023-02-28T10:47:41;1.33;;;1.00;;
11125;SDS011;5617;54.046;10.676;2023-02-28T10:49:57;2.77;;;1.30;;
11125;SDS011;5617;54.046;10.676;2023-02-28T10:52:07;4.67;;;1.03;;
11125;SDS011;5617;54.046;10.676;2023-02-28T10:54:18;3.27;;;1.23;;
11125;SDS011;5617;54.046;10.676;2023-02-28T10:56:36;3.33;;;1.33;;
11125;SDS011;5617;54.046;10.676;2023-02-28T10:58:48;7.17;;;2.20;;
11125;SDS011;5617;54.046;10.676;2023-02-28T11:00:57;5.03;;;1.20;;
11125;SDS011;5617;54.046;10.676;2023-02-28T11:03:05;3.63;;;1.50;;
11125;SDS011;5617;54.046;10.676;2023-02-28T11:05:32;3.90;;;1.80;;
11125;SDS011;5617;54.046;10.676;2023-02-28T11:07:41;2.00;;;1.40;;
11125;SDS011;5617;54.046;10.676;2023-02-28T11:09:50;1.53;;;0.80;;
11125;SDS011;5617;54.046;10.676;2023-02-28T11:11:59;2.10;;;1.13;;
11125;SDS011;5617;54.046;10.676;2023-02-28T11:14:14;3.90;;;1.40;;
11125;SDS011;5617;54.046;10.676;2023-02-28T11:16:31;4.87;;;3.43;;
11125;SDS011;5617;54.046;10.676;2023-02-28T11:18:41;2.97;;;1.60;;
11125;SDS011;5617;54.046;10.676;2023-02-28T11:20:54;1.50;;;1.00;;
11125;SDS011;5617;54.046;10.676;2023-02-28T11:23:04;1.27;;;1.00;;
11125;SDS011;5617;54.046;10.676;2023-02-28T11:25:23;2.47;;;1.10;;
11125;SDS011;5617;54.046;10.676;2023-02-28T11:27:44;1.37;;;1.20;;
11125;SDS011;5617;54.046;10.676;2023-02-28T11:29:54;1.90;;;1.17;;
11125;SDS011;5617;54.046;10.676;2023-02-28T11:32:03;1.63;;;1.20;;
11125;SDS011;5617;54.046;10.676;2023-02-28T11:34:23;1.73;;;1.07;;
11125;SDS011;5617;54.046;10.676;2023-02-28T11:36:33;3.13;;;1.30;;
11125;SDS011;5617;54.046;10.676;2023-02-28T11:38:41;2.23;;;1.40;;
11125;SDS011;5617;54.046;10.676;2023-02-28T11:40:53;3.43;;;1.30;;
11125;SDS011;5617;54.046;10.676;2023-02-28T11:43:16;2.10;;;1.33;;
11125;SDS011;5617;54.046;10.676;2023-02-28T11:45:38;2.13;;;1.13;;
11125;SDS011;5617;54.046;10.676;2023-02-28T11:47:55;1.60;;;1.30;;
11125;SDS011;5617;54.046;10.676;2023-02-28T11:50:14;1.93;;;1.20;;
11125;SDS011;5617;54.046;10.676;2023-02-28T11:52:29;2.73;;;1.10;;
11125;SDS011;5617;54.046;10.676;2023-02-28T11:54:55;1.33;;;1.23;;
11125;SDS011;5617;54.046;10.676;2023-02-28T11:57:18;1.53;;;1.17;;
11125;SDS011;5617;54.046;10.676;2023-02-28T11:59:45;1.93;;;1.30;;
11125;SDS011;5617;54.046;10.676;2023-02-28T12:02:05;1.37;;;1.00;;
11125;SDS011;5617;54.046;10.676;2023-02-28T12:04:32;2.83;;;1.30;;
11125;SDS011;5617;54.046;10.676;2023-02-28T12:06:47;3.50;;;1.40;;
11125;SDS011;5617;54.046;10.676;2023-02-28T12:09:02;1.63;;;1.13;;
11125;SDS011;5617;54.046;10.676;2023-02-28T12:11:25;2.23;;;1.43;;
11125;SDS011;5617;54.046;10.676;2023-02-28T12:13:44;1.97;;;1.37;;
11125;SDS011;5617;54.046;10.676;2023-02-28T12:16:00;2.23;;;1.30;;
11125;SDS011;5617;54.046;10.676;2023-02-28T12:18:38;1.50;;;1.20;;
11125;SDS011;5617;54.046;10.676;2023-02-28T12:21:01;2.30;;;1.20;;
11125;SDS011;5617;54.046;10.676;2023-02-28T12:23:21;1.30;;;1.20;;
11125;SDS011;5617;54.046;10.676;2023-02-28T12:25:54;2.10;;;1.40;;
11125;SDS011;5617;54.046;10.676;2023-02-28T12:28:09;1.73;;;1.40;;
11125;SDS011;5617;54.046;10.676;2023-02-28T12:30:23;2.53;;;1.17;;
11125;SDS011;5617;54.046;10.676;2023-02-28T12:32:35;1.63;;;1.30;;
11125;SDS011;5617;54.046;10.676;2023-02-28T12:34:47;1.37;;;1.20;;
11125;SDS011;5617;54.046;10.676;2023-02-28T12:36:58;1.60;;;1.27;;
11125;SDS011;5617;54.046;10.676;2023-02-28T12:39:13;3.03;;;1.20;;
11125;SDS011;5617;54.046;10.676;2023-02-28T12:41:27;1.20;;;1.10;;
11125;SDS011;5617;54.046;10.676;2023-02-28T12:43:42;1.67;;;1.40;;
11125;SDS011;5617;54.046;10.676;2023-02-28T12:45:53;1.93;;;1.20;;
11125;SDS011;5617;54.046;10.676;2023-02-28T12:48:06;2.60;;;1.43;;
11125;SDS011;5617;54.046;10.676;2023-02-28T12:50:17;1.77;;;1.27;;
11125;SDS011;5617;54.046;10.676;2023-02-28T12:52:28;2.37;;;1.43;;
11125;SDS011;5617;54.046;10.676;2023-02-28T12:54:43;1.97;;;1.70;;
11125;SDS011;5617;54.046;10.676;2023-02-28T12:56:56;1.60;;;1.37;;
11125;SDS011;5617;54.046;10.676;2023-02-28T12:59:12;1.60;;;1.30;;
11125;SDS011;5617;54.046;10.676;2023-02-28T13:01:33;3.00;;;1.40;;
11125;SDS011;5617;54.046;10.676;2023-02-28T13:04:04;2.47;;;1.40;;
11125;SDS011;5617;54.046;10.676;2023-02-28T13:06:34;1.83;;;1.30;;
11125;SDS011;5617;54.046;10.676;2023-02-28T13:09:01;3.00;;;1.67;;
11125;SDS011;5617;54.046;10.676;2023-02-28T13:11:22;1.77;;;1.50;;
11125;SDS011;5617;54.046;10.676;2023-02-28T13:13:32;4.37;;;1.50;;
11125;SDS011;5617;54.046;10.676;2023-02-28T13:15:40;1.53;;;1.17;;